createdAt,value
2022-12-18T00:00:45.869Z,1.77
2022-12-18T00:03:14.657Z,1.81
2022-12-18T00:05:51.038Z,1.76
2022-12-18T00:08:20.989Z,1.87
2022-12-18T00:10:50.809Z,2.02
2022-12-18T00:13:20.242Z,2.10
2022-12-18T00:15:50.225Z,2.15
2022-12-18T00:18:20.660Z,2.24
2022-12-18T00:20:50.879Z,2.19
2022-12-18T00:23:19.716Z,2.28
2022-12-18T00:25:48.343Z,2.44
2022-12-18T00:28:16.975Z,2.63
2022-12-18T00:30:46.691Z,2.75
2022-12-18T00:33:18.072Z,2.86
2022-12-18T00:35:46.730Z,2.85
2022-12-18T00:38:18.689Z,2.82
2022-12-18T00:40:47.413Z,2.81
2022-12-18T00:43:15.145Z,2.88
2022-12-18T00:45:45.578Z,2.89
2022-12-18T00:48:14.569Z,2.92
2022-12-18T00:50:46.892Z,2.96
2022-12-18T00:53:15.650Z,2.98
2022-12-18T00:55:48.419Z,3.00
2022-12-18T00:58:19.430Z,3.05
2022-12-18T01:00:48.079Z,3.14
2022-12-18T01:03:17.054Z,3.21
2022-12-18T01:05:47.009Z,3.23
2022-12-18T01:08:15.639Z,3.33
2022-12-18T01:10:46.864Z,3.43
2022-12-18T01:13:15.728Z,3.48
2022-12-18T01:15:51.062Z,3.46
2022-12-18T01:18:21.769Z,3.46
2022-12-18T01:20:50.489Z,3.46
2022-12-18T01:23:20.289Z,3.49
2022-12-18T01:25:50.331Z,3.58
2022-12-18T01:28:18.882Z,3.60
2022-12-18T01:30:47.919Z,3.59
2022-12-18T01:33:16.399Z,3.63
2022-12-18T01:35:45.850Z,3.66
2022-12-18T01:38:14.671Z,3.67
2022-12-18T01:40:43.330Z,3.75
2022-12-18T01:43:13.790Z,3.75
2022-12-18T01:45:43.769Z,3.78
2022-12-18T01:48:13.500Z,3.81
2022-12-18T01:50:44.591Z,3.79
2022-12-18T01:53:16.679Z,3.76
2022-12-18T01:55:49.379Z,3.74
2022-12-18T01:58:22.172Z,3.75
2022-12-18T02:00:50.812Z,3.77
2022-12-18T02:03:21.609Z,3.76
2022-12-18T02:06:00.095Z,3.73
2022-12-18T02:08:36.799Z,3.65
2022-12-18T02:11:12.718Z,3.59
2022-12-18T02:13:48.586Z,3.58
2022-12-18T02:16:27.134Z,3.60
2022-12-18T02:19:00.879Z,3.60
2022-12-18T02:21:43.669Z,3.61
2022-12-18T02:24:27.969Z,3.60
2022-12-18T02:27:02.740Z,3.62
2022-12-18T02:29:37.528Z,3.63
2022-12-18T02:32:11.963Z,3.73
2022-12-18T02:34:42.559Z,3.75
2022-12-18T02:37:17.049Z,3.73
2022-12-18T02:39:49.442Z,3.69
2022-12-18T02:42:21.419Z,3.64
2022-12-18T02:44:51.207Z,3.61
2022-12-18T02:47:23.032Z,3.58
2022-12-18T02:50:00.550Z,3.59
2022-12-18T02:52:38.108Z,3.60
2022-12-18T02:55:22.398Z,3.63
2022-12-18T02:57:57.512Z,3.66
2022-12-18T03:00:31.949Z,3.66
2022-12-18T03:03:08.280Z,3.69
2022-12-18T03:05:43.539Z,3.79
2022-12-18T03:08:20.478Z,3.92
2022-12-18T03:11:00.361Z,3.94
2022-12-18T03:13:36.268Z,3.98
2022-12-18T03:16:09.262Z,4.14
2022-12-18T03:18:45.987Z,4.18
2022-12-18T03:21:19.990Z,4.27
2022-12-18T03:23:54.020Z,4.25
2022-12-18T03:26:27.319Z,4.28
2022-12-18T03:29:02.477Z,4.28
2022-12-18T03:31:33.980Z,4.26
2022-12-18T03:34:07.007Z,4.31
2022-12-18T03:36:35.968Z,4.36
2022-12-18T03:39:04.887Z,4.36
2022-12-18T03:41:44.010Z,4.39
2022-12-18T03:44:18.569Z,4.43
2022-12-18T03:46:56.258Z,4.41
2022-12-18T03:49:32.149Z,4.41
2022-12-18T03:52:07.012Z,4.37
2022-12-18T03:54:39.664Z,4.40
2022-12-18T03:57:13.095Z,4.50
2022-12-18T03:59:45.142Z,4.48
2022-12-18T04:02:16.434Z,4.46
2022-12-18T04:04:49.579Z,4.44
2022-12-18T04:07:20.121Z,4.48
2022-12-18T04:09:51.618Z,4.50
2022-12-18T04:12:20.249Z,4.49
2022-12-18T04:14:52.742Z,4.51
2022-12-18T04:17:23.119Z,4.58
2022-12-18T04:19:52.700Z,4.59
2022-12-18T04:22:22.306Z,4.54
2022-12-18T04:24:51.767Z,4.57
2022-12-18T04:27:21.751Z,4.63
2022-12-18T04:29:51.925Z,4.64
2022-12-18T04:32:20.337Z,4.70
2022-12-18T04:34:50.009Z,4.67
2022-12-18T04:37:19.004Z,4.65
2022-12-18T04:39:48.074Z,4.65
2022-12-18T04:42:17.647Z,4.61
2022-12-18T04:44:46.429Z,4.73
2022-12-18T04:47:16.541Z,4.77
2022-12-18T04:49:45.277Z,4.73
2022-12-18T04:52:13.814Z,4.75
2022-12-18T04:54:43.503Z,4.79
2022-12-18T04:57:13.309Z,4.79
2022-12-18T04:59:41.963Z,4.84
2022-12-18T05:02:10.836Z,4.94
2022-12-18T05:04:41.849Z,4.92
2022-12-18T05:07:11.165Z,4.89
2022-12-18T05:09:39.887Z,4.85
2022-12-18T05:12:08.720Z,4.83
2022-12-18T05:14:37.268Z,4.82
2022-12-18T05:17:06.770Z,4.89
2022-12-18T05:19:35.655Z,4.96
2022-12-18T05:22:11.471Z,4.94
2022-12-18T05:24:41.232Z,4.89
2022-12-18T05:27:10.150Z,4.90
2022-12-18T05:29:38.948Z,4.94
2022-12-18T05:32:07.603Z,4.91
2022-12-18T05:34:36.218Z,4.90
2022-12-18T05:37:04.763Z,4.97
2022-12-18T05:39:35.879Z,5.04
2022-12-18T05:42:04.552Z,4.94
2022-12-18T05:44:34.038Z,4.93
2022-12-18T05:47:02.650Z,4.91
2022-12-18T05:49:32.591Z,4.89
2022-12-18T05:52:02.140Z,4.87
2022-12-18T05:54:32.420Z,4.90
2022-12-18T05:57:02.563Z,4.89
2022-12-18T05:59:32.136Z,4.84
2022-12-18T06:02:00.758Z,4.84
2022-12-18T06:04:30.175Z,4.83
2022-12-18T06:07:01.016Z,4.79
2022-12-18T06:09:29.759Z,4.77
2022-12-18T06:11:58.342Z,4.80
2022-12-18T06:14:28.566Z,4.80
2022-12-18T06:16:57.379Z,4.77
2022-12-18T06:19:26.101Z,4.78
2022-12-18T06:22:00.105Z,4.79
2022-12-18T06:24:28.966Z,4.77
2022-12-18T06:26:58.899Z,4.75
2022-12-18T06:29:29.039Z,4.77
2022-12-18T06:31:59.688Z,4.72
2022-12-18T06:34:29.402Z,4.75
2022-12-18T06:36:57.843Z,4.75
2022-12-18T06:39:26.714Z,4.76
2022-12-18T06:41:59.293Z,4.72
2022-12-18T06:44:30.526Z,4.75
2022-12-18T06:47:00.111Z,4.71
2022-12-18T06:49:30.725Z,4.71
2022-12-18T06:51:59.537Z,4.66
2022-12-18T06:54:28.164Z,4.69
2022-12-18T06:56:59.974Z,4.62
2022-12-18T06:59:31.144Z,4.57
2022-12-18T07:02:00.427Z,4.54
2022-12-18T07:04:31.260Z,4.47
2022-12-18T07:07:01.987Z,4.46
2022-12-18T07:09:30.754Z,4.42
2022-12-18T07:11:59.716Z,4.33
2022-12-18T07:14:28.469Z,4.37
2022-12-18T07:17:00.015Z,4.28
2022-12-18T07:19:29.883Z,4.32
2022-12-18T07:21:59.877Z,4.25
2022-12-18T07:24:28.289Z,4.33
2022-12-18T07:26:59.532Z,4.31
2022-12-18T07:29:34.064Z,4.27
2022-12-18T07:32:06.803Z,4.28
2022-12-18T07:34:35.499Z,4.25
2022-12-18T07:37:06.102Z,4.29
2022-12-18T07:39:34.500Z,4.27
2022-12-18T07:42:20.608Z,4.42
2022-12-18T07:44:50.053Z,4.36
2022-12-18T07:47:21.430Z,4.45
2022-12-18T07:49:51.563Z,4.50
2022-12-18T07:52:24.297Z,4.45
2022-12-18T07:54:56.843Z,4.42
2022-12-18T07:57:49.525Z,4.52
2022-12-18T08:00:16.235Z,4.54
2022-12-18T08:02:46.600Z,4.59
2022-12-18T08:05:17.432Z,4.56
2022-12-18T08:07:46.904Z,4.53
2022-12-18T08:10:15.523Z,4.56
2022-12-18T08:12:44.235Z,4.52
2022-12-18T08:15:19.398Z,4.55
2022-12-18T08:17:49.901Z,4.62
2022-12-18T08:20:19.618Z,4.56
2022-12-18T08:22:48.457Z,4.54
2022-12-18T08:25:17.303Z,4.58
2022-12-18T08:27:46.852Z,4.50
2022-12-18T08:30:16.051Z,4.50
2022-12-18T08:32:44.564Z,4.48
2022-12-18T08:35:17.567Z,4.47
2022-12-18T08:37:47.608Z,4.50
2022-12-18T08:40:16.379Z,4.52
2022-12-18T08:43:02.334Z,4.54
2022-12-18T08:45:31.046Z,4.47
2022-12-18T08:47:59.975Z,4.47
2022-12-18T08:50:31.253Z,4.48
2022-12-18T08:52:59.742Z,4.50
2022-12-18T08:55:28.254Z,4.54
2022-12-18T08:57:59.550Z,4.55
2022-12-18T09:00:29.957Z,4.58
2022-12-18T09:02:59.607Z,4.63
2022-12-18T09:05:31.585Z,4.62
2022-12-18T09:08:00.209Z,4.59
2022-12-18T09:10:28.654Z,4.65
2022-12-18T09:13:00.244Z,4.68
2022-12-18T09:15:28.639Z,4.65
2022-12-18T09:17:58.636Z,4.64
2022-12-18T09:20:29.581Z,4.64
2022-12-18T09:22:59.737Z,4.64
2022-12-18T09:25:34.487Z,4.62
2022-12-18T09:28:03.415Z,4.70
2022-12-18T09:30:34.691Z,4.67
2022-12-18T09:33:03.896Z,4.71
2022-12-18T09:35:32.563Z,4.69
2022-12-18T09:38:03.744Z,4.67
2022-12-18T09:40:37.736Z,4.68
2022-12-18T09:43:09.879Z,4.76
2022-12-18T09:45:52.316Z,4.71
2022-12-18T09:48:26.305Z,4.76
2022-12-18T09:51:02.681Z,4.83
2022-12-18T09:53:38.129Z,4.82
2022-12-18T09:56:07.622Z,4.85
2022-12-18T09:58:45.572Z,4.81
2022-12-18T10:01:17.956Z,4.83
2022-12-18T10:03:46.742Z,4.86
2022-12-18T10:06:21.132Z,4.84
2022-12-18T10:08:57.631Z,4.86
2022-12-18T10:11:41.585Z,4.90
2022-12-18T10:14:19.062Z,4.89
2022-12-18T10:16:57.363Z,4.88
2022-12-18T10:19:43.863Z,4.93
2022-12-18T10:22:25.288Z,4.95
2022-12-18T10:25:00.956Z,4.93
2022-12-18T10:27:31.029Z,4.99
2022-12-18T10:30:00.636Z,4.95
2022-12-18T10:32:32.699Z,5.04
2022-12-18T10:35:01.599Z,5.00
2022-12-18T10:37:32.232Z,5.02
2022-12-18T10:40:21.480Z,5.10
2022-12-18T10:43:06.791Z,5.13
2022-12-18T10:45:36.434Z,5.15
2022-12-18T10:48:06.508Z,5.18
2022-12-18T10:51:08.998Z,5.22
2022-12-18T10:53:28.967Z,5.26
2022-12-18T10:56:01.521Z,5.26
2022-12-18T10:58:32.954Z,5.27
2022-12-18T11:01:12.051Z,5.28
2022-12-18T11:03:43.412Z,5.32
2022-12-18T11:06:16.009Z,5.37
2022-12-18T11:08:47.084Z,5.38
2022-12-18T11:11:25.435Z,5.40
2022-12-18T11:14:05.168Z,5.44
2022-12-18T11:16:38.726Z,5.45
2022-12-18T11:19:22.805Z,5.50
2022-12-18T11:21:51.393Z,5.52
2022-12-18T11:24:33.986Z,5.51
2022-12-18T11:27:07.636Z,5.54
2022-12-18T11:29:41.933Z,5.66
2022-12-18T11:32:35.159Z,5.67
2022-12-18T11:35:19.324Z,5.71
2022-12-18T11:37:58.811Z,5.71
2022-12-18T11:40:36.575Z,5.74
2022-12-18T11:43:17.421Z,5.79
2022-12-18T11:45:54.441Z,5.86
2022-12-18T11:48:28.296Z,5.92
2022-12-18T11:50:58.514Z,5.94
2022-12-18T11:53:28.990Z,5.97
2022-12-18T11:56:08.422Z,6.02
2022-12-18T11:58:49.447Z,6.04
2022-12-18T12:01:37.615Z,6.05
2022-12-18T12:04:42.965Z,6.09
2022-12-18T12:07:24.304Z,6.13
2022-12-18T12:10:03.754Z,6.15
2022-12-18T12:12:51.319Z,6.18
2022-12-18T12:15:39.344Z,6.23
2022-12-18T12:18:27.085Z,6.31
2022-12-18T12:21:05.913Z,6.37
2022-12-18T12:23:47.392Z,6.42
2022-12-18T12:26:25.754Z,6.44
2022-12-18T12:29:04.009Z,6.46
2022-12-18T12:31:52.394Z,6.49
2022-12-18T12:34:26.300Z,6.58
2022-12-18T12:37:17.350Z,6.67
2022-12-18T12:39:51.458Z,6.77
2022-12-18T12:42:43.919Z,6.81
2022-12-18T12:45:21.315Z,6.87
2022-12-18T12:47:53.383Z,6.97
2022-12-18T12:50:23.716Z,7.04
2022-12-18T12:52:55.830Z,7.08
2022-12-18T12:55:26.947Z,7.18
2022-12-18T12:58:05.506Z,7.24
2022-12-18T13:00:43.771Z,7.30
2022-12-18T13:03:34.324Z,7.35
2022-12-18T13:06:11.764Z,7.39
2022-12-18T13:08:57.769Z,7.47
2022-12-18T13:11:57.829Z,7.52
2022-12-18T13:14:33.960Z,7.55
2022-12-18T13:17:32.306Z,7.60
2022-12-18T13:20:24.546Z,7.61
2022-12-18T13:22:53.958Z,7.72
2022-12-18T13:25:37.603Z,7.67
2022-12-18T13:28:14.378Z,7.68
2022-12-18T13:30:53.285Z,7.74
2022-12-18T13:34:09.417Z,7.80
2022-12-18T13:36:36.395Z,7.82
2022-12-18T13:39:32.677Z,7.87
2022-12-18T13:42:57.907Z,7.88
2022-12-18T13:45:48.781Z,7.92
2022-12-18T13:48:25.293Z,7.92
2022-12-18T13:51:03.283Z,7.90
2022-12-18T13:53:38.786Z,7.93
2022-12-18T13:56:08.388Z,7.95
2022-12-18T13:58:37.398Z,7.97
2022-12-18T14:01:06.314Z,7.99
2022-12-18T14:03:35.186Z,8.03
2022-12-18T14:06:09.550Z,8.04
2022-12-18T14:08:42.955Z,8.13
2022-12-18T14:11:24.034Z,8.17
2022-12-18T14:13:55.484Z,8.22
2022-12-18T14:16:25.560Z,8.17
2022-12-18T14:19:07.289Z,8.16
2022-12-18T14:21:51.576Z,8.17
2022-12-18T14:24:23.687Z,8.17
2022-12-18T14:26:53.963Z,8.18
2022-12-18T14:29:26.504Z,8.19
2022-12-18T14:32:16.484Z,8.19
2022-12-18T14:34:47.350Z,8.17
2022-12-18T14:37:24.394Z,8.22
2022-12-18T14:40:08.742Z,8.21
2022-12-18T14:42:39.697Z,8.20
2022-12-18T14:45:42.126Z,8.20
2022-12-18T14:48:19.107Z,8.19
2022-12-18T14:51:04.208Z,8.20
2022-12-18T14:53:38.354Z,8.20
2022-12-18T14:56:19.356Z,8.28
2022-12-18T14:58:51.554Z,8.34
2022-12-18T15:01:27.771Z,8.35
2022-12-18T15:04:00.952Z,8.39
2022-12-18T15:06:34.048Z,8.43
2022-12-18T15:09:03.950Z,8.45
2022-12-18T15:11:46.358Z,8.46
2022-12-18T15:14:42.416Z,8.57
2022-12-18T15:17:20.808Z,8.54
2022-12-18T15:19:51.477Z,8.52
2022-12-18T15:22:28.479Z,8.50
2022-12-18T15:25:01.857Z,8.48
2022-12-18T15:27:39.158Z,8.45
2022-12-18T15:30:24.639Z,8.45
2022-12-18T15:33:16.496Z,8.45
2022-12-18T15:35:47.198Z,8.49
2022-12-18T15:38:18.485Z,8.54
2022-12-18T15:40:47.114Z,8.62
2022-12-18T15:43:34.500Z,8.58
2022-12-18T15:46:04.211Z,8.59
2022-12-18T15:48:37.925Z,8.50
2022-12-18T15:51:19.518Z,8.46
2022-12-18T15:53:50.419Z,8.38
2022-12-18T15:56:36.735Z,8.44
2022-12-18T15:59:12.753Z,8.34
2022-12-18T16:01:44.607Z,8.31
2022-12-18T16:04:16.891Z,8.27
2022-12-18T16:07:13.342Z,8.24
2022-12-18T16:09:34.179Z,8.22
2022-12-18T16:12:05.116Z,8.24
2022-12-18T16:14:38.843Z,8.21
2022-12-18T16:17:12.705Z,8.13
2022-12-18T16:19:44.666Z,8.21
2022-12-18T16:22:25.286Z,8.29
2022-12-18T16:24:55.231Z,8.30
2022-12-18T16:27:25.205Z,8.31
2022-12-18T16:29:55.539Z,8.40
2022-12-18T16:32:24.906Z,8.39
2022-12-18T16:34:53.606Z,8.35
2022-12-18T16:37:22.252Z,8.34
2022-12-18T16:39:52.821Z,8.45
2022-12-18T16:42:23.298Z,8.34
2022-12-18T16:44:52.258Z,8.30
2022-12-18T16:47:22.351Z,8.39
2022-12-18T16:49:53.699Z,8.40
2022-12-18T16:52:28.747Z,8.44
2022-12-18T16:54:59.409Z,8.48
2022-12-18T16:57:28.200Z,8.44
2022-12-18T17:00:02.981Z,8.36
2022-12-18T17:02:37.012Z,8.40
2022-12-18T17:05:06.847Z,8.30
2022-12-18T17:07:36.070Z,8.36
2022-12-18T17:10:07.307Z,8.40
2022-12-18T17:12:38.943Z,8.33
2022-12-18T17:15:09.825Z,8.28
2022-12-18T17:17:41.103Z,8.27
2022-12-18T17:20:11.793Z,8.23
2022-12-18T17:22:43.314Z,8.19
2022-12-18T17:25:12.023Z,8.22
2022-12-18T17:27:40.893Z,8.25
2022-12-18T17:30:13.452Z,8.35
2022-12-18T17:32:43.533Z,8.36
2022-12-18T17:35:12.292Z,8.32
2022-12-18T17:37:41.408Z,8.31
2022-12-18T17:40:12.289Z,8.24
2022-12-18T17:42:41.013Z,8.13
2022-12-18T17:45:12.331Z,8.01
2022-12-18T17:47:44.434Z,7.93
2022-12-18T17:50:13.092Z,7.95
2022-12-18T17:52:41.577Z,8.01
2022-12-18T17:55:11.345Z,7.98
2022-12-18T17:57:41.130Z,8.03
2022-12-18T18:00:11.968Z,8.07
2022-12-18T18:02:41.303Z,8.15
2022-12-18T18:05:13.606Z,8.18
2022-12-18T18:07:43.689Z,8.20
2022-12-18T18:10:12.746Z,8.12
2022-12-18T18:12:59.015Z,8.09
2022-12-18T18:15:28.590Z,8.08
2022-12-18T18:17:57.261Z,8.08
2022-12-18T18:20:30.640Z,8.06
2022-12-18T18:22:59.924Z,8.07
2022-12-18T18:25:28.850Z,8.08
2022-12-18T18:27:57.560Z,8.16
2022-12-18T18:30:26.231Z,8.16
2022-12-18T18:32:54.944Z,8.67
2022-12-18T18:35:52.411Z,8.83
2022-12-18T18:38:13.740Z,8.87
2022-12-18T18:40:43.305Z,8.85
2022-12-18T18:43:14.053Z,8.95
2022-12-18T18:45:42.786Z,9.13
2022-12-18T18:48:14.475Z,9.28
2022-12-18T18:50:44.359Z,9.54
2022-12-18T18:53:14.379Z,9.64
2022-12-18T18:55:43.970Z,9.77
2022-12-18T18:58:12.830Z,9.84
2022-12-18T19:00:41.701Z,9.83
2022-12-18T19:03:11.391Z,9.80
2022-12-18T19:05:43.069Z,9.74
2022-12-18T19:08:16.227Z,9.74
2022-12-18T19:10:45.331Z,9.82
2022-12-18T19:13:31.752Z,9.99
2022-12-18T19:16:06.209Z,10.00
2022-12-18T19:18:38.257Z,10.04
2022-12-18T19:21:08.277Z,10.02
2022-12-18T19:23:38.216Z,10.05
2022-12-18T19:29:02.723Z,10.07
2022-12-18T19:31:35.642Z,10.08
2022-12-18T19:34:07.053Z,10.03
2022-12-18T19:36:38.714Z,10.04
2022-12-18T19:39:13.823Z,10.05
2022-12-18T19:41:43.075Z,10.14
2022-12-18T19:44:14.266Z,10.20
2022-12-18T19:46:43.607Z,10.30
2022-12-18T19:49:38.456Z,10.32
2022-12-18T19:52:01.149Z,10.31
2022-12-18T19:54:32.160Z,10.28
2022-12-18T19:57:00.605Z,10.37
2022-12-18T19:59:29.231Z,10.40
2022-12-18T20:02:01.044Z,10.48
2022-12-18T20:04:30.020Z,10.60
2022-12-18T20:06:58.864Z,10.81
2022-12-18T20:09:27.955Z,10.85
2022-12-18T20:11:58.682Z,10.84
2022-12-18T20:14:28.939Z,10.76
2022-12-18T20:17:01.029Z,10.77
2022-12-18T20:19:30.413Z,10.62
2022-12-18T20:22:02.269Z,10.47
2022-12-18T20:24:30.997Z,10.40
2022-12-18T20:27:01.013Z,10.43
2022-12-18T20:29:29.743Z,10.48
2022-12-18T20:31:58.866Z,10.49
2022-12-18T20:34:27.459Z,10.58
2022-12-18T20:36:57.450Z,10.52
2022-12-18T20:39:27.770Z,10.54
2022-12-18T20:41:58.710Z,10.60
2022-12-18T20:44:28.857Z,10.62
2022-12-18T20:47:04.014Z,10.53
2022-12-18T20:49:37.607Z,10.50
2022-12-18T20:52:08.150Z,10.45
2022-12-18T20:54:36.767Z,10.41
2022-12-18T20:57:05.540Z,10.38
2022-12-18T20:59:35.710Z,10.39
2022-12-18T21:02:04.388Z,10.38
2022-12-18T21:04:33.372Z,10.40
2022-12-18T21:07:02.996Z,10.40
2022-12-18T21:09:37.462Z,10.41
2022-12-18T21:12:32.489Z,10.37
2022-12-18T21:15:15.342Z,10.43
2022-12-18T21:17:45.505Z,10.41
2022-12-18T21:20:18.157Z,10.41
2022-12-18T21:22:47.395Z,10.54
2022-12-18T21:25:16.200Z,10.57
2022-12-18T21:27:44.939Z,10.48
2022-12-18T21:30:15.682Z,10.44
2022-12-18T21:32:44.454Z,10.43
2022-12-18T21:35:13.022Z,10.43
2022-12-18T21:37:42.728Z,10.48
2022-12-18T21:40:12.430Z,10.48
2022-12-18T21:42:58.831Z,10.41
2022-12-18T21:45:29.000Z,10.35
2022-12-18T21:47:57.832Z,10.31
2022-12-18T21:50:26.493Z,10.34
2022-12-18T21:52:57.540Z,10.35
2022-12-18T21:55:26.101Z,10.36
2022-12-18T21:57:55.876Z,10.39
2022-12-18T22:00:24.786Z,10.65
2022-12-18T22:03:17.645Z,10.75
2022-12-18T22:05:43.434Z,10.91
2022-12-18T22:08:12.662Z,10.90
2022-12-18T22:10:42.285Z,10.87
2022-12-18T22:13:11.214Z,10.84
2022-12-18T22:15:40.103Z,10.92
2022-12-18T22:18:10.373Z,10.88
2022-12-18T22:20:39.209Z,10.96
2022-12-18T22:23:07.823Z,11.05
2022-12-18T22:25:39.661Z,11.06
2022-12-18T22:28:25.850Z,11.09
2022-12-18T22:30:59.695Z,11.20
2022-12-18T22:33:30.347Z,11.27
2022-12-18T22:35:59.167Z,11.19
2022-12-18T22:38:28.176Z,11.13
2022-12-18T22:40:56.929Z,11.09
2022-12-18T22:43:26.050Z,11.09
2022-12-18T22:45:55.029Z,11.06
2022-12-18T22:48:23.943Z,11.13
2022-12-18T22:50:59.508Z,11.11
2022-12-18T22:53:28.870Z,11.03
2022-12-18T22:56:02.531Z,10.98
2022-12-18T22:58:31.131Z,10.96
2022-12-18T23:00:59.586Z,10.85
2022-12-18T23:03:28.422Z,10.82
2022-12-18T23:06:06.081Z,10.84
2022-12-18T23:08:34.970Z,10.83
2022-12-18T23:11:03.814Z,10.83
2022-12-18T23:13:34.247Z,10.78
2022-12-18T23:16:06.970Z,10.92
2022-12-18T23:18:36.435Z,10.98
2022-12-18T23:21:09.122Z,10.90
2022-12-18T23:23:39.341Z,10.87
2022-12-18T23:26:10.661Z,10.90
2022-12-18T23:28:40.348Z,10.96
2022-12-18T23:31:14.041Z,11.00
2022-12-18T23:33:44.817Z,10.97
2022-12-18T23:36:15.959Z,10.92
2022-12-18T23:38:44.585Z,10.85
2022-12-18T23:41:16.271Z,10.90
2022-12-18T23:43:44.978Z,10.86
2022-12-18T23:46:20.114Z,10.87
2022-12-18T23:48:49.348Z,10.83
2022-12-18T23:51:23.657Z,10.79
2022-12-18T23:53:53.209Z,10.80
2022-12-18T23:56:21.978Z,10.73
2022-12-18T23:58:52.696Z,10.70
